Time;durP1;ratioP1;P1;durP2;ratioP2;P2;SDS_P1;SDS_P2;PMS_P1;PMS_P2;Temp;Humidity;BMP_temperature;BMP_pressure;BME280_temperature;BME280_humidity;BME280_pressure;Samples;Min_cycle;Max_cycle;Signal;HPM_P1;HPM_P2
2022/04/29 00:00:16;;;;;;;19.27;9.85;;;;;;;;;;5025121;28;20111;-62
2022/04/29 00:02:42;;;;;;;14.15;9.18;;;;;;;;;;5021349;28;20409;-62
2022/04/29 00:05:09;;;;;;;17.55;9.15;;;;;;;;;;5026855;28;20475;-62
2022/04/29 00:07:35;;;;;;;21.05;9.35;;;;;;;;;;5049836;28;20086;-62
2022/04/29 00:10:01;;;;;;;20.90;9.32;;;;;;;;;;5031290;28;20033;-62
2022/04/29 00:12:26;;;;;;;15.88;8.60;;;;;;;;;;5041367;28;20040;-62
2022/04/29 00:14:52;;;;;;;15.05;8.50;;;;;;;;;;5010297;28;20431;-62
2022/04/29 00:17:17;;;;;;;15.98;8.77;;;;;;;;;;5043008;28;20029;-63
2022/04/29 00:19:43;;;;;;;16.42;8.98;;;;;;;;;;5016084;28;20045;-62
2022/04/29 00:22:09;;;;;;;13.93;8.38;;;;;;;;;;5012515;28;20030;-62
2022/04/29 00:24:34;;;;;;;16.20;8.70;;;;;;;;;;5029452;28;20060;-62
2022/04/29 00:27:02;;;;;;;16.20;8.93;;;;;;;;;;5033865;28;20076;-61
2022/04/29 00:29:27;;;;;;;15.32;8.35;;;;;;;;;;5022087;28;20117;-62
2022/04/29 00:31:53;;;;;;;15.45;8.48;;;;;;;;;;5026922;28;20448;-62
2022/04/29 00:34:18;;;;;;;14.32;8.25;;;;;;;;;;5023031;28;20495;-62
2022/04/29 00:36:44;;;;;;;17.85;8.48;;;;;;;;;;5034616;28;20032;-62
2022/04/29 00:39:10;;;;;;;16.02;7.68;;;;;;;;;;5049903;28;20037;-62
2022/04/29 00:41:35;;;;;;;14.25;7.63;;;;;;;;;;5054037;28;20029;-62
2022/04/29 00:44:09;;;;;;;13.43;7.35;;;;;;;;;;5036600;28;20392;-62
2022/04/29 00:46:39;;;;;;;13.45;7.70;;;;;;;;;;5014686;28;20116;-62
2022/04/29 00:49:07;;;;;;;13.02;7.65;;;;;;;;;;5021652;28;20038;-62
2022/04/29 00:51:33;;;;;;;13.55;7.18;;;;;;;;;;5033668;28;20037;-62
2022/04/29 00:54:01;;;;;;;14.43;6.90;;;;;;;;;;5015191;28;20033;-62
2022/04/29 00:56:31;;;;;;;12.50;7.40;;;;;;;;;;5023896;28;20029;-63
2022/04/29 00:59:41;;;;;;;19.77;7.55;;;;;;;;;;5053771;28;20123;-63
2022/04/29 01:02:08;;;;;;;15.80;7.10;;;;;;;;;;5028957;28;20104;-63
2022/04/29 01:04:42;;;;;;;14.35;7.20;;;;;;;;;;5026363;28;20041;-63
2022/04/29 01:07:07;;;;;;;13.35;6.88;;;;;;;;;;5012446;28;20045;-63
2022/04/29 01:09:33;;;;;;;12.82;6.88;;;;;;;;;;5013492;28;20026;-62
2022/04/29 01:11:58;;;;;;;15.20;7.30;;;;;;;;;;5028062;28;20033;-62
2022/04/29 01:14:23;;;;;;;17.50;7.18;;;;;;;;;;5015627;28;20030;-62
2022/04/29 01:16:49;;;;;;;14.52;6.82;;;;;;;;;;5012452;28;20079;-62
2022/04/29 01:19:15;;;;;;;17.15;7.80;;;;;;;;;;5014030;28;20026;-62
2022/04/29 01:21:41;;;;;;;15.25;7.30;;;;;;;;;;5026398;28;20042;-61
2022/04/29 01:24:08;;;;;;;12.57;7.47;;;;;;;;;;5031846;28;20530;-62
2022/04/29 01:26:34;;;;;;;13.45;7.50;;;;;;;;;;5041596;28;20087;-62
2022/04/29 01:29:01;;;;;;;11.65;6.75;;;;;;;;;;5027134;28;20037;-62
2022/04/29 01:31:28;;;;;;;13.55;7.00;;;;;;;;;;5013628;28;20036;-62
2022/04/29 01:33:54;;;;;;;15.52;7.63;;;;;;;;;;5021776;28;20061;-62
2022/04/29 01:36:20;;;;;;;12.35;6.68;;;;;;;;;;5022749;28;20038;-62
2022/04/29 01:38:45;;;;;;;13.43;7.47;;;;;;;;;;5016790;28;20031;-61
2022/04/29 01:41:13;;;;;;;16.45;7.15;;;;;;;;;;5035405;28;20452;-61
2022/04/29 01:43:39;;;;;;;12.70;7.50;;;;;;;;;;5023522;28;20025;-62
2022/04/29 01:46:04;;;;;;;16.58;7.07;;;;;;;;;;5031450;28;20025;-61
2022/04/29 01:48:29;;;;;;;14.00;7.03;;;;;;;;;;5022431;28;20398;-62
2022/04/29 01:50:58;;;;;;;13.80;6.90;;;;;;;;;;5013290;28;20368;-61
2022/04/29 01:53:26;;;;;;;14.98;6.75;;;;;;;;;;5016010;28;20053;-63
2022/04/29 01:55:52;;;;;;;14.95;6.75;;;;;;;;;;5027545;28;20033;-62
2022/04/29 01:58:17;;;;;;;12.93;6.88;;;;;;;;;;5015447;28;20040;-67
2022/04/29 02:00:42;;;;;;;12.57;6.47;;;;;;;;;;5015114;28;20029;-63
2022/04/29 02:03:09;;;;;;;13.23;6.38;;;;;;;;;;5018052;28;20032;-63
2022/04/29 02:05:34;;;;;;;15.77;6.07;;;;;;;;;;5026472;28;20033;-62
2022/04/29 02:08:00;;;;;;;13.45;6.47;;;;;;;;;;5028247;28;20041;-62
2022/04/29 02:10:26;;;;;;;14.07;6.50;;;;;;;;;;5013056;28;20037;-62
2022/04/29 02:12:52;;;;;;;10.20;5.70;;;;;;;;;;5046423;28;20473;-62
2022/04/29 02:15:19;;;;;;;14.95;6.63;;;;;;;;;;5050498;28;20035;-62
2022/04/29 02:17:44;;;;;;;15.35;5.80;;;;;;;;;;5030273;28;20411;-62
2022/04/29 02:20:10;;;;;;;10.45;5.20;;;;;;;;;;5029909;28;20033;-62
2022/04/29 02:22:35;;;;;;;12.23;5.53;;;;;;;;;;5026549;28;20033;-62
2022/04/29 02:25:01;;;;;;;10.23;6.05;;;;;;;;;;5035167;28;20475;-63
2022/04/29 02:27:26;;;;;;;9.82;5.68;;;;;;;;;;5032915;28;20029;-63
2022/04/29 02:29:52;;;;;;;10.80;5.47;;;;;;;;;;5045549;28;20033;-63
2022/04/29 02:32:17;;;;;;;13.85;5.20;;;;;;;;;;5051218;28;20025;-62
2022/04/29 02:34:43;;;;;;;13.23;5.82;;;;;;;;;;5027046;28;20036;-63
2022/04/29 02:37:09;;;;;;;10.60;5.25;;;;;;;;;;5011890;28;20034;-62
2022/04/29 02:39:34;;;;;;;9.90;5.13;;;;;;;;;;5034621;28;20031;-62
2022/04/29 02:42:00;;;;;;;11.80;5.55;;;;;;;;;;5013333;28;20387;-62
2022/04/29 02:44:25;;;;;;;11.82;5.57;;;;;;;;;;5034139;28;20029;-62
2022/04/29 02:47:09;;;;;;;11.60;5.38;;;;;;;;;;5052432;28;20071;-63
2022/04/29 02:49:42;;;;;;;12.27;5.78;;;;;;;;;;5046398;28;20036;-63
2022/04/29 02:52:09;;;;;;;13.70;5.80;;;;;;;;;;5041694;28;20035;-65
2022/04/29 02:54:35;;;;;;;17.38;6.13;;;;;;;;;;5044338;28;20033;-63
2022/04/29 02:57:01;;;;;;;19.90;5.80;;;;;;;;;;5021269;28;20107;-62
2022/04/29 02:59:26;;;;;;;12.95;5.57;;;;;;;;;;5022121;28;20052;-62
2022/04/29 03:01:52;;;;;;;11.18;5.88;;;;;;;;;;5033651;28;20453;-62
2022/04/29 03:04:17;;;;;;;12.15;5.60;;;;;;;;;;5030706;28;20040;-62
2022/04/29 03:06:43;;;;;;;12.10;5.43;;;;;;;;;;5036252;28;20021;-62
2022/04/29 03:09:09;;;;;;;11.82;5.32;;;;;;;;;;5021479;28;20076;-63
2022/04/29 03:11:34;;;;;;;10.80;5.85;;;;;;;;;;5022702;28;20033;-62
2022/04/29 03:14:00;;;;;;;14.77;5.95;;;;;;;;;;5049857;28;20040;-62
2022/04/29 03:16:25;;;;;;;14.13;5.88;;;;;;;;;;5028815;28;20030;-62
2022/04/29 03:18:51;;;;;;;11.75;5.55;;;;;;;;;;5012168;28;20033;-62
2022/04/29 03:21:18;;;;;;;12.85;6.25;;;;;;;;;;5021264;28;20120;-62
2022/04/29 03:23:45;;;;;;;10.70;5.63;;;;;;;;;;5031678;28;20045;-62
2022/04/29 03:26:11;;;;;;;13.32;5.65;;;;;;;;;;5012610;28;20034;-62
2022/04/29 03:28:36;;;;;;;11.25;6.15;;;;;;;;;;5012513;28;20092;-62
2022/04/29 03:31:02;;;;;;;14.20;5.85;;;;;;;;;;5022922;28;20029;-62
2022/04/29 03:33:28;;;;;;;13.70;6.18;;;;;;;;;;5012716;28;20030;-62
2022/04/29 03:35:56;;;;;;;12.60;6.05;;;;;;;;;;5048257;28;20033;-62
2022/04/29 03:38:23;;;;;;;11.93;5.97;;;;;;;;;;5015258;28;20376;-63
2022/04/29 03:40:48;;;;;;;13.07;7.07;;;;;;;;;;5044152;28;20039;-63
2022/04/29 03:43:14;;;;;;;12.35;5.95;;;;;;;;;;5047742;28;20150;-62
2022/04/29 03:45:39;;;;;;;15.13;6.30;;;;;;;;;;5029783;28;20038;-62
2022/04/29 03:48:05;;;;;;;15.60;6.47;;;;;;;;;;5025044;28;20397;-62
2022/04/29 03:50:31;;;;;;;15.18;6.28;;;;;;;;;;5014607;28;20391;-62
2022/04/29 03:52:58;;;;;;;18.38;6.18;;;;;;;;;;5045414;28;20040;-62
2022/04/29 03:55:26;;;;;;;13.48;6.78;;;;;;;;;;5037907;28;20057;-63
2022/04/29 03:57:55;;;;;;;12.13;6.22;;;;;;;;;;5054476;28;20036;-62
2022/04/29 04:00:23;;;;;;;17.20;6.63;;;;;;;;;;5057508;28;20553;-62
2022/04/29 04:02:49;;;;;;;24.77;7.13;;;;;;;;;;5025835;28;20116;-62
2022/04/29 04:05:15;;;;;;;16.70;6.53;;;;;;;;;;5028991;28;20029;-62
2022/04/29 04:07:41;;;;;;;17.13;6.03;;;;;;;;;;5035637;28;20506;-62
2022/04/29 04:10:07;;;;;;;13.10;6.53;;;;;;;;;;5034433;28;20061;-63
2022/04/29 04:12:46;;;;;;;16.80;6.32;;;;;;;;;;5028134;28;20030;-66
2022/04/29 04:15:12;;;;;;;16.75;7.03;;;;;;;;;;5047834;28;20037;-63
2022/04/29 04:17:38;;;;;;;17.27;6.93;;;;;;;;;;5056847;28;20037;-62
2022/04/29 04:20:06;;;;;;;17.25;7.28;;;;;;;;;;5033571;28;20095;-62
2022/04/29 04:22:35;;;;;;;14.48;7.05;;;;;;;;;;5016440;28;20049;-62
2022/04/29 04:25:01;;;;;;;17.10;7.28;;;;;;;;;;5032652;28;20089;-62
2022/04/29 04:27:26;;;;;;;18.50;7.50;;;;;;;;;;5037616;28;20083;-62
2022/04/29 04:29:51;;;;;;;18.27;7.07;;;;;;;;;;5022260;28;20038;-62
2022/04/29 04:32:17;;;;;;;19.83;7.55;;;;;;;;;;5014451;28;20048;-62
2022/04/29 04:34:51;;;;;;;17.85;7.38;;;;;;;;;;5031046;28;20372;-62
2022/04/29 04:37:21;;;;;;;15.43;6.88;;;;;;;;;;5015256;28;20117;-62
2022/04/29 04:39:47;;;;;;;18.05;7.10;;;;;;;;;;5033852;28;20499;-63
2022/04/29 04:42:13;;;;;;;18.48;7.40;;;;;;;;;;5041708;28;20426;-62
2022/04/29 04:44:39;;;;;;;17.13;7.47;;;;;;;;;;5035434;28;20029;-62
2022/04/29 04:47:08;;;;;;;17.50;7.65;;;;;;;;;;5049189;28;20058;-62
2022/04/29 04:49:34;;;;;;;16.08;7.45;;;;;;;;;;5043125;28;20033;-62
2022/04/29 04:52:00;;;;;;;19.17;7.85;;;;;;;;;;5056310;28;20387;-62
2022/04/29 04:54:25;;;;;;;15.32;7.05;;;;;;;;;;5050194;28;20106;-62
2022/04/29 04:56:50;;;;;;;16.63;7.32;;;;;;;;;;5045981;28;20033;-63
2022/04/29 04:59:16;;;;;;;18.95;7.35;;;;;;;;;;5055955;28;20037;-63
2022/04/29 05:01:41;;;;;;;16.10;7.22;;;;;;;;;;5056408;28;20033;-62
2022/04/29 05:04:07;;;;;;;15.10;7.00;;;;;;;;;;5048445;28;20036;-62
2022/04/29 05:06:33;;;;;;;18.17;8.07;;;;;;;;;;5047654;28;20431;-63
2022/04/29 05:08:58;;;;;;;18.20;7.97;;;;;;;;;;5048011;28;20494;-62
2022/04/29 05:11:23;;;;;;;19.67;8.45;;;;;;;;;;5052630;28;20490;-63
2022/04/29 05:13:49;;;;;;;17.55;7.60;;;;;;;;;;5051063;28;20025;-63
2022/04/29 05:16:14;;;;;;;19.58;7.65;;;;;;;;;;5050969;28;20029;-62
2022/04/29 05:18:40;;;;;;;20.30;7.68;;;;;;;;;;5040806;28;20386;-63
2022/04/29 05:21:05;;;;;;;17.70;7.45;;;;;;;;;;5033241;28;20056;-62
2022/04/29 05:23:31;;;;;;;16.13;8.00;;;;;;;;;;5039856;28;20053;-62
2022/04/29 05:25:56;;;;;;;19.27;8.45;;;;;;;;;;5047767;28;20143;-65
2022/04/29 05:28:21;;;;;;;18.00;8.18;;;;;;;;;;5035234;28;20119;-66
2022/04/29 05:30:48;;;;;;;18.83;7.88;;;;;;;;;;5033444;28;20453;-66
2022/04/29 05:33:14;;;;;;;20.52;8.32;;;;;;;;;;5034874;28;20037;-67
2022/04/29 05:35:39;;;;;;;21.63;8.30;;;;;;;;;;5031840;28;20026;-68
2022/04/29 05:38:05;;;;;;;15.80;8.23;;;;;;;;;;5033060;28;20037;-67
2022/04/29 05:43:15;;;;;;;20.10;7.68;;;;;;;;;;5039617;28;20048;-68
2022/04/29 05:45:40;;;;;;;17.80;8.00;;;;;;;;;;5033585;28;20033;-69
2022/04/29 05:48:06;;;;;;;18.98;8.55;;;;;;;;;;5035274;28;20056;-68
2022/04/29 05:50:32;;;;;;;19.02;8.77;;;;;;;;;;5033642;28;20379;-69
2022/04/29 05:52:57;;;;;;;19.80;8.13;;;;;;;;;;5033168;28;20029;-68
2022/04/29 05:55:22;;;;;;;18.30;7.72;;;;;;;;;;5032620;28;20700;-69
2022/04/29 05:57:48;;;;;;;20.65;8.88;;;;;;;;;;5034254;28;20025;-69
2022/04/29 06:00:15;;;;;;;20.33;8.50;;;;;;;;;;5033156;28;20391;-69
2022/04/29 06:02:43;;;;;;;17.27;8.25;;;;;;;;;;5022699;28;20121;-67
2022/04/29 06:05:09;;;;;;;18.05;8.23;;;;;;;;;;5023565;28;20029;-67
2022/04/29 06:07:35;;;;;;;15.77;7.90;;;;;;;;;;5050427;28;20033;-69
2022/04/29 06:10:00;;;;;;;19.60;7.97;;;;;;;;;;5047529;28;20040;-67
2022/04/29 06:12:26;;;;;;;18.38;8.40;;;;;;;;;;5040423;28;20455;-67
2022/04/29 06:14:51;;;;;;;19.70;7.82;;;;;;;;;;5018789;28;20034;-65
2022/04/29 06:17:17;;;;;;;19.15;8.05;;;;;;;;;;5051761;28;20029;-66
2022/04/29 06:19:42;;;;;;;19.35;8.50;;;;;;;;;;5048682;28;20039;-68
2022/04/29 06:22:08;;;;;;;18.92;8.25;;;;;;;;;;5029851;28;20106;-66
2022/04/29 06:24:34;;;;;;;23.02;8.15;;;;;;;;;;5042344;28;20053;-66
2022/04/29 06:26:59;;;;;;;18.40;8.32;;;;;;;;;;5042363;28;20387;-67
2022/04/29 06:29:25;;;;;;;21.48;8.73;;;;;;;;;;5033904;28;20044;-68
2022/04/29 06:31:50;;;;;;;16.60;8.18;;;;;;;;;;5022898;28;20034;-65
2022/04/29 06:34:16;;;;;;;17.52;7.80;;;;;;;;;;5029771;28;20115;-65
2022/04/29 06:36:42;;;;;;;18.10;7.78;;;;;;;;;;5031030;28;20033;-68
2022/04/29 06:39:07;;;;;;;18.92;8.15;;;;;;;;;;5028308;28;20068;-68
2022/04/29 06:41:34;;;;;;;16.50;8.00;;;;;;;;;;5040063;28;20034;-68
2022/04/29 06:44:00;;;;;;;20.67;7.80;;;;;;;;;;5020598;28;20047;-69
2022/04/29 06:46:25;;;;;;;17.58;7.65;;;;;;;;;;5036101;28;20032;-69
2022/04/29 06:48:54;;;;;;;19.05;8.15;;;;;;;;;;5037989;28;20459;-67
2022/04/29 06:51:20;;;;;;;15.38;7.85;;;;;;;;;;5028680;28;20041;-68
2022/04/29 06:53:46;;;;;;;19.25;7.45;;;;;;;;;;5028388;28;20104;-68
2022/04/29 06:56:11;;;;;;;15.18;7.47;;;;;;;;;;5023856;28;20053;-66
2022/04/29 06:58:37;;;;;;;22.17;8.63;;;;;;;;;;5050212;28;20521;-68
2022/04/29 07:01:03;;;;;;;17.98;8.48;;;;;;;;;;5040155;28;20032;-68
2022/04/29 07:03:28;;;;;;;18.98;7.88;;;;;;;;;;5045577;28;20478;-66
2022/04/29 07:05:56;;;;;;;18.38;7.68;;;;;;;;;;5048193;28;20041;-69
2022/04/29 07:08:23;;;;;;;18.10;7.95;;;;;;;;;;5025849;28;20369;-65
2022/04/29 07:10:48;;;;;;;18.90;8.05;;;;;;;;;;5050217;28;20033;-66
2022/04/29 07:13:14;;;;;;;13.13;7.20;;;;;;;;;;5043145;28;20360;-66
2022/04/29 07:15:43;;;;;;;18.52;7.85;;;;;;;;;;5027532;28;20033;-65
2022/04/29 07:18:10;;;;;;;13.00;7.45;;;;;;;;;;5025687;28;20030;-65
2022/04/29 07:20:35;;;;;;;20.83;8.00;;;;;;;;;;5041968;28;20391;-67
2022/04/29 07:23:00;;;;;;;15.73;7.95;;;;;;;;;;5049308;28;20032;-64
2022/04/29 07:25:26;;;;;;;15.82;7.90;;;;;;;;;;5049439;28;20048;-64
2022/04/29 07:27:51;;;;;;;18.75;7.93;;;;;;;;;;5031344;28;20077;-64
2022/04/29 07:30:17;;;;;;;13.77;7.18;;;;;;;;;;5028391;28;20032;-63
2022/04/29 07:32:48;;;;;;;16.42;7.68;;;;;;;;;;5032019;28;20029;-64
2022/04/29 07:43:25;;;;;;;12.15;6.80;;;;;;;;;;5024844;28;20525;-65
2022/04/29 07:45:51;;;;;;;15.32;7.30;;;;;;;;;;5048967;28;20037;-66
2022/04/29 07:48:17;;;;;;;16.13;7.57;;;;;;;;;;5032728;28;20033;-65
2022/04/29 07:50:43;;;;;;;16.48;7.88;;;;;;;;;;5034924;28;20038;-67
2022/04/29 07:53:08;;;;;;;17.23;7.75;;;;;;;;;;5023620;28;20056;-65
2022/04/29 07:55:34;;;;;;;14.05;7.07;;;;;;;;;;5033511;28;20067;-65
2022/04/29 07:58:00;;;;;;;17.13;7.32;;;;;;;;;;5029244;28;20038;-65
2022/04/29 08:00:26;;;;;;;16.52;7.38;;;;;;;;;;5047178;28;20036;-64
2022/04/29 08:02:51;;;;;;;18.40;7.03;;;;;;;;;;5037521;28;20029;-65
2022/04/29 08:05:18;;;;;;;15.65;7.22;;;;;;;;;;5041425;28;20041;-66
2022/04/29 08:07:43;;;;;;;11.77;7.03;;;;;;;;;;5044694;28;20119;-65
2022/04/29 08:10:09;;;;;;;16.98;7.53;;;;;;;;;;5039507;28;20111;-68
2022/04/29 08:12:37;;;;;;;16.33;6.95;;;;;;;;;;5045072;28;20109;-64
2022/04/29 08:15:03;;;;;;;17.15;6.85;;;;;;;;;;5041876;28;20033;-68
2022/04/29 08:17:28;;;;;;;15.55;7.32;;;;;;;;;;5036326;28;20092;-66
2022/04/29 08:19:54;;;;;;;15.77;7.00;;;;;;;;;;5029852;28;20029;-69
2022/04/29 08:22:20;;;;;;;14.02;7.20;;;;;;;;;;5028869;28;20036;-67
2022/04/29 08:24:45;;;;;;;14.45;7.10;;;;;;;;;;5037305;28;20551;-68
2022/04/29 08:27:12;;;;;;;16.58;7.18;;;;;;;;;;5029971;28;20108;-68
2022/04/29 08:29:38;;;;;;;14.48;7.13;;;;;;;;;;5042881;28;20041;-69
2022/04/29 08:32:04;;;;;;;15.70;6.55;;;;;;;;;;5047698;28;20465;-63
2022/04/29 08:34:31;;;;;;;22.27;7.03;;;;;;;;;;5031833;28;20040;-63
2022/04/29 08:36:56;;;;;;;13.15;6.35;;;;;;;;;;5030232;28;20044;-64
2022/04/29 08:39:21;;;;;;;14.45;6.60;;;;;;;;;;5032573;28;20120;-64
2022/04/29 08:41:50;;;;;;;15.68;7.10;;;;;;;;;;5025807;28;20037;-62
2022/04/29 08:44:19;;;;;;;16.15;6.70;;;;;;;;;;5030990;28;20072;-63
2022/04/29 08:46:47;;;;;;;16.42;7.50;;;;;;;;;;5034659;28;20026;-63
2022/04/29 08:49:14;;;;;;;16.10;7.15;;;;;;;;;;5043776;28;20034;-63
2022/04/29 08:51:40;;;;;;;12.70;6.70;;;;;;;;;;5051953;28;20048;-61
2022/04/29 08:58:36;;;;;;;15.32;6.30;;;;;;;;;;5052714;28;20471;-62
2022/04/29 08:59:35;;;;;;;14.85;6.30;;;;;;;;;;5017726;28;20064;-61
2022/04/29 09:02:00;;;;;;;13.02;6.30;;;;;;;;;;5032405;28;20478;-60
2022/04/29 09:04:26;;;;;;;12.50;6.47;;;;;;;;;;5047148;28;20543;-60
2022/04/29 09:06:51;;;;;;;11.98;6.63;;;;;;;;;;5044549;28;20479;-67
2022/04/29 09:09:21;;;;;;;11.90;6.20;;;;;;;;;;5025445;28;20030;-67
2022/04/29 09:11:47;;;;;;;16.52;7.13;;;;;;;;;;5052241;28;20111;-68
2022/04/29 09:14:25;;;;;;;13.88;7.03;;;;;;;;;;5034801;28;20165;-69
2022/04/29 09:16:51;;;;;;;11.45;6.15;;;;;;;;;;5014170;28;20029;-69
2022/04/29 09:19:33;;;;;;;16.38;6.57;;;;;;;;;;5018684;28;20037;-68
2022/04/29 09:22:17;;;;;;;14.18;6.20;;;;;;;;;;5048845;28;20025;-69
2022/04/29 09:24:57;;;;;;;11.05;6.28;;;;;;;;;;5049966;28;20052;-70
2022/04/29 09:27:22;;;;;;;14.30;6.82;;;;;;;;;;5031862;28;20463;-68
2022/04/29 09:29:48;;;;;;;15.70;6.25;;;;;;;;;;5047565;28;20044;-68
2022/04/29 09:32:56;;;;;;;13.20;6.28;;;;;;;;;;5026388;28;20471;-68
2022/04/29 09:35:41;;;;;;;12.00;6.60;;;;;;;;;;5032373;28;20125;-70
2022/04/29 09:40:58;;;;;;;13.90;6.32;;;;;;;;;;5020205;28;20069;-68
2022/04/29 09:43:37;;;;;;;14.23;6.78;;;;;;;;;;5036290;28;20033;-70
2022/04/29 09:46:20;;;;;;;16.95;6.97;;;;;;;;;;5037278;28;20036;-66
2022/04/29 09:48:51;;;;;;;18.90;7.43;;;;;;;;;;5050300;28;20458;-68
2022/04/29 09:51:52;;;;;;;11.80;6.63;;;;;;;;;;5030699;28;20087;-66
2022/04/29 09:54:23;;;;;;;18.03;6.77;;;;;;;;;;5035267;28;20025;-69
2022/04/29 09:57:01;;;;;;;14.40;6.80;;;;;;;;;;5024730;28;20500;-67
2022/04/29 09:59:30;;;;;;;12.95;6.55;;;;;;;;;;5032838;28;20036;-71
2022/04/29 10:01:56;;;;;;;11.68;6.20;;;;;;;;;;5049268;28;20051;-69
2022/04/29 10:04:22;;;;;;;13.52;6.55;;;;;;;;;;5051014;28;20040;-68
2022/04/29 10:06:49;;;;;;;10.57;6.03;;;;;;;;;;5035129;28;20033;-70
2022/04/29 10:09:16;;;;;;;13.98;6.53;;;;;;;;;;5048705;28;20482;-69
2022/04/29 10:11:44;;;;;;;14.38;6.47;;;;;;;;;;5037723;28;20033;-68
2022/04/29 10:14:15;;;;;;;12.65;6.30;;;;;;;;;;5027548;28;20037;-73
2022/04/29 10:16:45;;;;;;;12.25;5.93;;;;;;;;;;5035036;28;20088;-67
2022/04/29 10:22:03;;;;;;;11.45;6.15;;;;;;;;;;5050644;28;20040;-67
2022/04/29 10:24:35;;;;;;;14.98;6.00;;;;;;;;;;5051970;28;20041;-69
2022/04/29 10:27:00;;;;;;;12.25;5.78;;;;;;;;;;5036115;28;20029;-67
2022/04/29 10:29:28;;;;;;;12.75;5.95;;;;;;;;;;5034034;28;20037;-68
2022/04/29 10:32:07;;;;;;;10.73;5.68;;;;;;;;;;5033157;28;20030;-68
2022/04/29 10:34:34;;;;;;;12.27;5.68;;;;;;;;;;5035759;28;20059;-69
2022/04/29 10:37:01;;;;;;;15.00;6.30;;;;;;;;;;5050837;28;20032;-67
2022/04/29 10:39:29;;;;;;;10.52;5.53;;;;;;;;;;5033804;28;20673;-67
2022/04/29 10:42:04;;;;;;;9.00;5.50;;;;;;;;;;5030552;28;20108;-69
2022/04/29 10:44:31;;;;;;;10.77;5.57;;;;;;;;;;5028695;28;20245;-67
2022/04/29 10:47:16;;;;;;;13.23;6.30;;;;;;;;;;5030307;28;20026;-67
2022/04/29 10:49:42;;;;;;;10.50;5.90;;;;;;;;;;5042370;28;20043;-68
2022/04/29 10:52:28;;;;;;;12.15;5.53;;;;;;;;;;5049142;28;20033;-65
2022/04/29 10:54:57;;;;;;;12.65;5.57;;;;;;;;;;5013703;28;20042;-65
2022/04/29 10:57:46;;;;;;;15.68;5.68;;;;;;;;;;5012013;28;20468;-67
2022/04/29 11:00:12;;;;;;;14.98;5.53;;;;;;;;;;5010996;28;20029;-64
2022/04/29 11:02:38;;;;;;;9.52;5.13;;;;;;;;;;5022188;28;20487;-67
2022/04/29 11:05:04;;;;;;;10.75;5.70;;;;;;;;;;5032148;28;20065;-68
2022/04/29 11:07:46;;;;;;;10.73;5.28;;;;;;;;;;5014198;28;20096;-68
2022/04/29 11:10:16;;;;;;;13.52;5.88;;;;;;;;;;5026089;28;20120;-66
2022/04/29 11:12:54;;;;;;;12.80;5.32;;;;;;;;;;5029739;28;20080;-68
2022/04/29 11:15:23;;;;;;;11.13;5.43;;;;;;;;;;5030912;28;20071;-68
2022/04/29 11:17:48;;;;;;;11.82;5.13;;;;;;;;;;5037028;28;20030;-68
2022/04/29 11:20:25;;;;;;;8.88;5.38;;;;;;;;;;5030913;28;20163;-66
2022/04/29 11:25:54;;;;;;;9.18;5.53;;;;;;;;;;5031490;28;20052;-68
2022/04/29 11:28:20;;;;;;;11.57;5.65;;;;;;;;;;5029625;28;20056;-65
2022/04/29 11:30:47;;;;;;;11.55;5.43;;;;;;;;;;5031751;28;20068;-65
2022/04/29 11:33:12;;;;;;;10.90;5.75;;;;;;;;;;5044838;28;20094;-65
2022/04/29 11:35:38;;;;;;;10.50;5.40;;;;;;;;;;5035113;28;20456;-66
2022/04/29 11:38:04;;;;;;;13.00;5.53;;;;;;;;;;5011595;28;20037;-68
2022/04/29 11:40:29;;;;;;;13.93;5.72;;;;;;;;;;5026329;28;20029;-68
2022/04/29 11:42:55;;;;;;;8.27;5.30;;;;;;;;;;5051742;28;20060;-69
2022/04/29 11:45:22;;;;;;;11.38;5.30;;;;;;;;;;5036605;28;20039;-65
2022/04/29 11:47:48;;;;;;;12.73;5.50;;;;;;;;;;5011794;28;20030;-69
2022/04/29 11:50:13;;;;;;;13.60;5.13;;;;;;;;;;5031251;28;20032;-66
2022/04/29 11:52:39;;;;;;;11.07;5.03;;;;;;;;;;5051402;28;20056;-65
2022/04/29 11:55:16;;;;;;;11.68;5.30;;;;;;;;;;5043762;28;20025;-69
2022/04/29 11:57:46;;;;;;;11.80;5.28;;;;;;;;;;5051053;28;20478;-66
2022/04/29 12:00:21;;;;;;;10.20;5.20;;;;;;;;;;5029215;28;20124;-66
2022/04/29 12:02:47;;;;;;;9.15;5.30;;;;;;;;;;5010996;28;20091;-68
2022/04/29 12:05:13;;;;;;;10.43;5.30;;;;;;;;;;5049069;28;20116;-66
2022/04/29 12:07:41;;;;;;;14.70;5.82;;;;;;;;;;5045471;28;21138;-69
2022/04/29 12:10:27;;;;;;;10.75;5.30;;;;;;;;;;5051141;28;20060;-69
2022/04/29 12:12:56;;;;;;;10.02;5.47;;;;;;;;;;5049958;28;20025;-70
2022/04/29 12:15:30;;;;;;;11.60;6.43;;;;;;;;;;5054024;28;20060;-68
2022/04/29 12:17:58;;;;;;;10.85;5.90;;;;;;;;;;5045204;28;20025;-68
2022/04/29 12:20:24;;;;;;;13.82;6.10;;;;;;;;;;5034389;28;20109;-69
2022/04/29 12:22:51;;;;;;;12.80;6.32;;;;;;;;;;5036652;28;20025;-68
2022/04/29 12:25:35;;;;;;;14.13;6.07;;;;;;;;;;5034166;28;20095;-66
2022/04/29 12:28:19;;;;;;;10.15;6.32;;;;;;;;;;5034856;28;20128;-71
2022/04/29 12:36:57;;;;;;;11.93;6.43;;;;;;;;;;5034474;28;20056;-66
2022/04/29 12:39:33;;;;;;;9.18;6.13;;;;;;;;;;5053795;28;20078;-68
2022/04/29 12:42:01;;;;;;;10.45;6.47;;;;;;;;;;5051880;28;20398;-67
2022/04/29 12:47:24;;;;;;;9.98;6.50;;;;;;;;;;5040941;28;20138;-65
2022/04/29 12:49:50;;;;;;;11.35;6.68;;;;;;;;;;5017059;28;20119;-68
2022/04/29 12:52:16;;;;;;;12.23;6.65;;;;;;;;;;5051633;28;20129;-68
2022/04/29 12:54:42;;;;;;;10.82;6.78;;;;;;;;;;5053212;28;20524;-64
2022/04/29 12:57:09;;;;;;;12.68;7.07;;;;;;;;;;5045150;28;20112;-69
2022/04/29 12:59:37;;;;;;;12.07;6.90;;;;;;;;;;5052392;28;20056;-69
2022/04/29 13:02:06;;;;;;;14.20;7.45;;;;;;;;;;5054233;28;20021;-66
2022/04/29 13:04:32;;;;;;;13.25;6.97;;;;;;;;;;5044125;28;20046;-69
2022/04/29 13:06:57;;;;;;;13.98;7.60;;;;;;;;;;5034186;28;20112;-65
2022/04/29 13:09:25;;;;;;;10.68;6.85;;;;;;;;;;5048053;28;20470;-68
2022/04/29 13:11:51;;;;;;;11.98;7.13;;;;;;;;;;5027055;28;20437;-67
2022/04/29 13:14:17;;;;;;;14.63;7.65;;;;;;;;;;5029976;28;20112;-66
2022/04/29 13:16:43;;;;;;;13.93;7.43;;;;;;;;;;5034080;28;20383;-69
2022/04/29 13:19:09;;;;;;;12.35;7.50;;;;;;;;;;5034908;28;20041;-68
2022/04/29 13:21:35;;;;;;;12.75;7.40;;;;;;;;;;5033061;28;20101;-69
2022/04/29 13:24:01;;;;;;;13.65;7.75;;;;;;;;;;5036902;28;20395;-68
2022/04/29 13:26:27;;;;;;;12.00;7.25;;;;;;;;;;5025862;28;20734;-68
2022/04/29 13:28:53;;;;;;;14.07;8.07;;;;;;;;;;5032116;28;20040;-70
2022/04/29 13:31:18;;;;;;;13.73;7.15;;;;;;;;;;5031540;28;20118;-69
2022/04/29 13:33:44;;;;;;;13.88;7.85;;;;;;;;;;5033915;28;20039;-68
2022/04/29 13:36:09;;;;;;;11.27;7.35;;;;;;;;;;5030410;28;20390;-67
2022/04/29 13:38:35;;;;;;;13.90;7.80;;;;;;;;;;5033975;28;20029;-66
2022/04/29 13:41:02;;;;;;;14.82;7.82;;;;;;;;;;5029847;28;20037;-66
2022/04/29 13:43:28;;;;;;;15.65;8.20;;;;;;;;;;5030683;28;20038;-66
2022/04/29 13:45:54;;;;;;;10.90;7.70;;;;;;;;;;5032176;28;20399;-65
2022/04/29 13:48:19;;;;;;;16.70;7.95;;;;;;;;;;5032329;28;20471;-65
2022/04/29 13:50:44;;;;;;;16.25;7.45;;;;;;;;;;5036375;28;20035;-65
2022/04/29 13:53:14;;;;;;;15.15;7.72;;;;;;;;;;5043527;28;20048;-66
2022/04/29 13:55:50;;;;;;;12.02;7.50;;;;;;;;;;5036010;28;20243;-67
2022/04/29 13:58:20;;;;;;;16.05;8.23;;;;;;;;;;5031398;28;20033;-65
2022/04/29 14:00:48;;;;;;;13.47;7.50;;;;;;;;;;5049368;28;20390;-67
2022/04/29 14:03:16;;;;;;;13.48;7.28;;;;;;;;;;5049072;28;20277;-65
2022/04/29 14:05:42;;;;;;;10.75;7.30;;;;;;;;;;5042656;28;20040;-65
2022/04/29 14:08:08;;;;;;;14.35;8.23;;;;;;;;;;5032336;28;20486;-68
2022/04/29 14:10:34;;;;;;;15.80;7.85;;;;;;;;;;5030139;28;20032;-67
2022/04/29 14:13:00;;;;;;;12.57;7.97;;;;;;;;;;5015969;28;20021;-66
2022/04/29 14:15:27;;;;;;;12.32;8.00;;;;;;;;;;5035983;28;20036;-66
2022/04/29 14:17:53;;;;;;;12.75;8.18;;;;;;;;;;5029917;28;20029;-65
2022/04/29 14:20:18;;;;;;;11.55;8.05;;;;;;;;;;5050939;28;20408;-64
2022/04/29 14:22:44;;;;;;;15.80;8.68;;;;;;;;;;5033341;28;20104;-65
2022/04/29 14:25:11;;;;;;;17.38;9.50;;;;;;;;;;5031222;28;20499;-66
2022/04/29 14:27:39;;;;;;;17.30;9.38;;;;;;;;;;5013597;28;20033;-65
2022/04/29 14:30:06;;;;;;;15.10;9.48;;;;;;;;;;5030639;28;20079;-67
2022/04/29 14:32:33;;;;;;;12.20;9.13;;;;;;;;;;5030516;28;20033;-66
2022/04/29 14:35:00;;;;;;;13.10;9.68;;;;;;;;;;5037817;28;20060;-66
2022/04/29 14:37:26;;;;;;;17.98;10.05;;;;;;;;;;5035479;28;20494;-65
2022/04/29 14:39:53;;;;;;;13.70;9.55;;;;;;;;;;5032483;28;20037;-66
2022/04/29 14:42:19;;;;;;;15.88;9.82;;;;;;;;;;5030477;28;20048;-65
2022/04/29 14:44:45;;;;;;;15.65;9.82;;;;;;;;;;5031397;28;20468;-66
2022/04/29 14:47:10;;;;;;;19.67;10.30;;;;;;;;;;5036928;28;20379;-66
2022/04/29 14:49:36;;;;;;;13.35;10.43;;;;;;;;;;5046141;28;20029;-67
2022/04/29 14:52:01;;;;;;;19.50;10.75;;;;;;;;;;5049640;28;20029;-66
2022/04/29 14:54:27;;;;;;;15.63;10.52;;;;;;;;;;5047810;28;20021;-66
2022/04/29 14:56:53;;;;;;;16.95;10.90;;;;;;;;;;5052028;28;20036;-66
2022/04/29 14:59:20;;;;;;;19.13;10.50;;;;;;;;;;5048574;28;20474;-64
2022/04/29 15:01:45;;;;;;;19.30;10.75;;;;;;;;;;5024885;28;20041;-64
2022/04/29 15:04:11;;;;;;;16.15;10.43;;;;;;;;;;5032039;28;20504;-66